createdAt,value
2018-09-05T00:00:05.579Z,97948.95
2018-09-05T00:02:33.256Z,97949.59
2018-09-05T00:05:00.927Z,97951.80
2018-09-05T00:07:28.576Z,97947.37
2018-09-05T00:09:56.301Z,97949.50
2018-09-05T00:12:23.971Z,97944.95
2018-09-05T00:14:51.627Z,97947.63
2018-09-05T00:17:19.237Z,97942.06
2018-09-05T00:19:46.897Z,97944.27
2018-09-05T00:22:14.534Z,97944.56
2018-09-05T00:24:42.161Z,97937.94
2018-09-05T00:27:09.816Z,97938.99
2018-09-05T00:29:37.439Z,97936.83
2018-09-05T00:32:05.283Z,97932.38
2018-09-05T00:34:32.999Z,97939.73
2018-09-05T00:37:00.657Z,97936.86
2018-09-05T00:39:28.283Z,97934.16
2018-09-05T00:41:55.933Z,97937.13
2018-09-05T00:44:23.617Z,97933.81
2018-09-05T00:46:51.275Z,97933.81
2018-09-05T00:49:18.937Z,97938.17
2018-09-05T00:51:46.528Z,97938.81
2018-09-05T00:54:14.177Z,97936.40
2018-09-05T00:56:41.840Z,97938.84
2018-09-05T00:59:09.460Z,97936.43
2018-09-05T01:01:37.086Z,97938.97
2018-09-05T01:04:04.806Z,97936.08
2018-09-05T01:06:32.588Z,97937.48
2018-09-05T01:09:00.192Z,97934.42
2018-09-05T01:11:27.859Z,97937.51
2018-09-05T01:13:55.472Z,97938.62
2018-09-05T01:16:23.340Z,97939.64
2018-09-05T01:18:50.989Z,97932.92
2018-09-05T01:21:18.644Z,97943.02
2018-09-05T01:23:46.282Z,97938.68
2018-09-05T01:26:13.943Z,97935.63
2018-09-05T01:28:41.632Z,97935.27
2018-09-05T01:31:09.279Z,97945.45
2018-09-05T01:33:37.234Z,97945.58
2018-09-05T01:36:18.319Z,97939.47
2018-09-05T01:38:45.985Z,97939.88
2018-09-05T01:41:14.558Z,97933.90
2018-09-05T01:43:42.726Z,97936.05
2018-09-05T01:46:10.521Z,97941.05
2018-09-05T01:48:38.687Z,97945.02
2018-09-05T01:51:06.364Z,97939.92
2018-09-05T01:53:34.482Z,97942.47
2018-09-05T01:56:02.804Z,97939.54
2018-09-05T01:58:30.645Z,97935.47
2018-09-05T02:00:58.312Z,97948.60
2018-09-05T02:03:26.017Z,97947.84
2018-09-05T02:05:53.636Z,97944.78
2018-09-05T02:08:21.319Z,97942.89
2018-09-05T02:10:49.060Z,97946.48
2018-09-05T02:13:16.697Z,97943.03
2018-09-05T02:15:44.375Z,97944.56
2018-09-05T02:18:12.021Z,97946.98
2018-09-05T02:20:39.651Z,97945.81
2018-09-05T02:23:07.368Z,97945.59
2018-09-05T02:25:35.097Z,97948.27
2018-09-05T02:28:02.787Z,97948.14
2018-09-05T02:30:30.444Z,97946.38
2018-09-05T02:32:58.095Z,97940.66
2018-09-05T02:35:25.747Z,97944.33
2018-09-05T02:37:53.479Z,97943.31
2018-09-05T02:40:21.139Z,97946.27
2018-09-05T02:42:48.788Z,97946.75
2018-09-05T02:45:16.472Z,97948.53
2018-09-05T02:47:44.150Z,97948.43
2018-09-05T02:50:11.800Z,97951.44
2018-09-05T02:52:39.544Z,97941.80
2018-09-05T02:55:07.220Z,97945.36
2018-09-05T02:57:34.855Z,97942.45
2018-09-05T03:00:02.563Z,97947.28
2018-09-05T03:02:30.196Z,97944.98
2018-09-05T03:04:57.805Z,97944.74
2018-09-05T03:07:25.498Z,97942.95
2018-09-05T03:09:53.155Z,97946.01
2018-09-05T03:12:21.675Z,97947.00
2018-09-05T03:14:50.795Z,97954.27
2018-09-05T03:17:18.623Z,97952.11
2018-09-05T03:19:46.267Z,97949.18
2018-09-05T03:22:13.990Z,97951.34
2018-09-05T03:24:41.673Z,97948.67
2018-09-05T03:27:09.293Z,97947.91
2018-09-05T03:29:36.972Z,97947.67
2018-09-05T03:32:04.724Z,97942.17
2018-09-05T03:34:32.382Z,97948.05
2018-09-05T03:37:00.033Z,97946.64
2018-09-05T03:39:27.636Z,97947.02
2018-09-05T03:41:55.270Z,97944.12
2018-09-05T03:44:22.953Z,97943.22
2018-09-05T03:46:50.567Z,97941.95
2018-09-05T03:49:18.209Z,97946.26
2018-09-05T03:51:45.879Z,97961.64
2018-09-05T03:54:13.559Z,97954.79
2018-09-05T03:56:41.254Z,97958.22
2018-09-05T03:59:09.006Z,97954.16
2018-09-05T04:01:36.671Z,97962.95
2018-09-05T04:04:04.342Z,97968.41
2018-09-05T04:06:32.012Z,97966.11
2018-09-05T04:08:59.668Z,97969.94
2018-09-05T04:11:27.330Z,97968.00
2018-09-05T04:13:55.048Z,97971.44
2018-09-05T04:16:22.707Z,97969.17
2018-09-05T04:18:50.361Z,97970.44
2018-09-05T04:21:18.070Z,97970.17
2018-09-05T04:23:46.803Z,97971.31
2018-09-05T04:26:15.699Z,97974.23
2018-09-05T04:28:43.459Z,97973.23
2018-09-05T04:31:12.424Z,97970.94
2018-09-05T04:33:40.532Z,97978.70
2018-09-05T04:36:09.446Z,97982.63
2018-09-05T04:38:37.067Z,97984.42
2018-09-05T04:41:04.721Z,97984.29
2018-09-05T04:43:32.390Z,97986.32
2018-09-05T04:46:00.029Z,97982.50
2018-09-05T04:48:27.696Z,97988.22
2018-09-05T04:50:55.397Z,97987.85
2018-09-05T04:53:23.103Z,97996.23
2018-09-05T04:55:51.407Z,97999.16
2018-09-05T04:58:19.133Z,97999.53
2018-09-05T05:00:46.756Z,98006.16
2018-09-05T05:03:14.531Z,98005.53
2018-09-05T05:05:42.269Z,98000.17
2018-09-05T05:08:09.861Z,98002.06
2018-09-05T05:10:37.544Z,98007.92
2018-09-05T05:13:05.312Z,98009.45
2018-09-05T05:15:33.016Z,98012.52
2018-09-05T05:18:00.676Z,98010.72
2018-09-05T05:20:30.458Z,98011.34
2018-09-05T05:22:58.100Z,98018.86
2018-09-05T05:25:25.752Z,98020.28
2018-09-05T05:27:53.551Z,98020.53
2018-09-05T05:30:21.330Z,98029.28
2018-09-05T05:32:49.216Z,98034.09
2018-09-05T05:35:16.880Z,98031.82
2018-09-05T05:37:44.508Z,98027.72
2018-09-05T05:40:12.203Z,98031.94
2018-09-05T05:42:39.851Z,98026.19
2018-09-05T05:45:07.524Z,98034.07
2018-09-05T05:47:35.276Z,98030.58
2018-09-05T05:50:03.519Z,98038.00
2018-09-05T05:52:31.691Z,98040.63
2018-09-05T05:54:59.698Z,98041.61
2018-09-05T05:57:27.692Z,98046.23
2018-09-05T05:59:55.329Z,98043.70
2018-09-05T06:02:22.985Z,98046.17
2018-09-05T06:04:50.791Z,98048.69
2018-09-05T06:07:18.429Z,98049.23
2018-09-05T06:09:46.085Z,98052.13
2018-09-05T06:12:13.894Z,98052.02
2018-09-05T06:14:41.566Z,98047.95
2018-09-05T06:17:09.302Z,98049.95
2018-09-05T06:19:37.024Z,98051.19
2018-09-05T06:22:04.779Z,98059.92
2018-09-05T06:24:32.998Z,98055.13
2018-09-05T06:27:00.719Z,98050.03
2018-09-05T06:29:28.435Z,98051.91
2018-09-05T06:31:56.081Z,98048.34
2018-09-05T06:34:23.775Z,98048.11
2018-09-05T06:36:51.439Z,98049.63
2018-09-05T06:39:19.107Z,98049.89
2018-09-05T06:41:46.764Z,98045.75
2018-09-05T06:44:14.424Z,98042.28
2018-09-05T06:46:42.084Z,98041.15
2018-09-05T06:49:09.980Z,98044.55
2018-09-05T06:51:37.642Z,98040.98
2018-09-05T06:54:05.348Z,98044.50
2018-09-05T06:56:33.044Z,98035.45
2018-09-05T06:59:00.790Z,98043.33
2018-09-05T07:01:28.444Z,98043.95
2018-09-05T07:03:56.143Z,98046.90
2018-09-05T07:06:23.795Z,98048.30
2018-09-05T07:08:51.458Z,98050.59
2018-09-05T07:11:19.184Z,98048.53
2018-09-05T07:13:46.908Z,98057.62
2018-09-05T07:16:14.577Z,98051.27
2018-09-05T07:18:42.313Z,98051.00
2018-09-05T07:21:10.196Z,98051.15
2018-09-05T07:23:37.840Z,98051.77
2018-09-05T07:26:05.692Z,98054.99
2018-09-05T07:28:33.377Z,98058.31
2018-09-05T07:31:01.142Z,98058.23
2018-09-05T07:33:28.751Z,98062.63
2018-09-05T07:35:56.387Z,98060.61
2018-09-05T07:38:24.026Z,98063.78
2018-09-05T07:40:51.779Z,98058.68
2018-09-05T07:43:19.403Z,98057.67
2018-09-05T07:45:47.041Z,98058.76
2018-09-05T07:48:14.772Z,98061.14
2018-09-05T07:50:42.444Z,98060.24
2018-09-05T07:53:10.040Z,98056.03
2018-09-05T07:55:37.732Z,98059.12
2018-09-05T07:58:05.847Z,98061.56
2018-09-05T08:00:33.521Z,98065.26
2018-09-05T08:03:01.277Z,98063.79
2018-09-05T08:05:28.897Z,98060.03
2018-09-05T08:07:56.500Z,98066.38
2018-09-05T08:10:24.189Z,98065.02
2018-09-05T08:12:51.837Z,98055.98
2018-09-05T08:15:19.495Z,98059.33
2018-09-05T08:17:47.173Z,98060.62
2018-09-05T08:20:14.796Z,98060.62
2018-09-05T08:22:42.529Z,98067.55
2018-09-05T08:25:10.190Z,98062.64
2018-09-05T08:27:37.871Z,98068.98
2018-09-05T08:30:05.694Z,98062.57
2018-09-05T08:32:33.381Z,98062.48
2018-09-05T08:35:01.188Z,98062.02
2018-09-05T08:37:28.900Z,98061.75
2018-09-05T08:39:56.406Z,98063.41
2018-09-05T08:42:24.204Z,98063.07
2018-09-05T08:44:52.003Z,98060.67
2018-09-05T08:47:19.573Z,98062.08
2018-09-05T08:49:47.223Z,98055.42
2018-09-05T08:52:14.881Z,98059.81
2018-09-05T08:54:42.597Z,98048.41
2018-09-05T08:57:10.265Z,98058.78
2018-09-05T08:59:37.921Z,98060.46
2018-09-05T09:02:05.728Z,98058.65
2018-09-05T09:04:33.412Z,98058.22
2018-09-05T09:07:01.056Z,98053.80
2018-09-05T09:09:28.744Z,98052.82
2018-09-05T09:11:56.409Z,98056.03
2018-09-05T09:14:24.104Z,98052.05
2018-09-05T09:16:51.848Z,98060.92
2018-09-05T09:19:19.471Z,98055.84
2018-09-05T09:21:47.122Z,98046.59
2018-09-05T09:24:14.889Z,98054.10
2018-09-05T09:26:42.547Z,98044.92
2018-09-05T09:29:10.205Z,98033.16
2018-09-05T09:31:37.887Z,98041.50
2018-09-05T09:34:05.555Z,98042.95
2018-09-05T09:36:33.164Z,98044.23
2018-09-05T09:39:00.829Z,98040.42
2018-09-05T09:41:28.472Z,98040.23
2018-09-05T09:43:56.110Z,98032.75
2018-09-05T09:46:23.832Z,98038.55
2018-09-05T09:48:51.614Z,98032.00
2018-09-05T09:51:21.400Z,98034.75
2018-09-05T09:53:49.171Z,98028.06
2018-09-05T09:56:16.786Z,98026.05
2018-09-05T09:58:44.464Z,98024.78
2018-09-05T10:01:17.694Z,98021.36
2018-09-05T10:03:50.865Z,98020.61
2018-09-05T10:06:19.622Z,98017.89
2018-09-05T10:08:52.863Z,98018.19
2018-09-05T10:11:25.053Z,98014.42
2018-09-05T10:13:58.351Z,98017.45
2018-09-05T10:16:31.456Z,98013.42
2018-09-05T10:18:59.157Z,98015.25
2018-09-05T10:21:26.789Z,98006.39
2018-09-05T10:23:54.472Z,98004.02
2018-09-05T10:26:22.101Z,98001.18
2018-09-05T10:28:49.744Z,98000.56
2018-09-05T10:31:17.455Z,97996.39
2018-09-05T10:33:45.068Z,97996.21
2018-09-05T10:36:12.676Z,97997.86
2018-09-05T10:38:40.329Z,97990.48
2018-09-05T10:41:07.971Z,97994.71
2018-09-05T10:43:35.630Z,97992.66
2018-09-05T10:46:03.305Z,97992.19
2018-09-05T10:48:31.009Z,97985.81
2018-09-05T10:50:58.634Z,97985.87
2018-09-05T10:53:26.313Z,97980.30
2018-09-05T10:55:54.027Z,97977.88
2018-09-05T10:58:21.745Z,97976.21
2018-09-05T11:00:49.429Z,97971.37
2018-09-05T11:03:17.341Z,97974.39
2018-09-05T11:05:45.023Z,97965.47
2018-09-05T11:08:12.704Z,97962.33
2018-09-05T11:10:40.342Z,97965.52
2018-09-05T11:13:08.004Z,97956.84
2018-09-05T11:15:35.719Z,97953.55
2018-09-05T11:18:03.560Z,97957.20
2018-09-05T11:20:31.327Z,97954.53
2018-09-05T11:22:58.997Z,97953.36
2018-09-05T11:25:26.633Z,97947.88
2018-09-05T11:27:54.284Z,97946.30
2018-09-05T11:30:21.941Z,97952.80
2018-09-05T11:32:49.583Z,97950.58
2018-09-05T11:35:17.202Z,97945.44
2018-09-05T11:37:44.857Z,97950.78
2018-09-05T11:40:12.604Z,97944.09
2018-09-05T11:42:40.204Z,97945.83
2018-09-05T11:45:07.866Z,97937.52
2018-09-05T11:47:35.507Z,97943.05
2018-09-05T11:50:03.473Z,97938.36
2018-09-05T11:52:31.108Z,97938.59
2018-09-05T11:54:58.804Z,97939.64
2018-09-05T11:57:26.473Z,97925.66
2018-09-05T11:59:54.165Z,97933.39
2018-09-05T12:02:21.941Z,97932.09
2018-09-05T12:04:49.551Z,97934.58
2018-09-05T12:07:17.292Z,97927.39
2018-09-05T12:09:44.914Z,97924.80
2018-09-05T12:12:12.676Z,97924.83
2018-09-05T12:14:40.338Z,97926.98
2018-09-05T12:17:08.360Z,97928.31
2018-09-05T12:19:36.006Z,97920.98
2018-09-05T12:22:03.677Z,97920.09
2018-09-05T12:24:31.328Z,97919.48
2018-09-05T12:26:58.964Z,97915.95
2018-09-05T12:29:29.566Z,97916.34
2018-09-05T12:31:57.201Z,97914.25
2018-09-05T12:34:24.804Z,97909.41
2018-09-05T12:36:52.503Z,97912.67
2018-09-05T12:39:20.142Z,97911.11
2018-09-05T12:41:47.762Z,97912.68
2018-09-05T12:44:15.421Z,97911.26
2018-09-05T12:46:43.042Z,97911.87
2018-09-05T12:49:10.697Z,97911.91
2018-09-05T12:51:38.477Z,97918.22
2018-09-05T12:54:06.832Z,97913.00
2018-09-05T12:56:34.451Z,97903.38
2018-09-05T12:59:02.128Z,97898.73
2018-09-05T13:01:29.733Z,97898.61
2018-09-05T13:03:57.424Z,97898.58
2018-09-05T13:06:25.068Z,97892.09
2018-09-05T13:08:52.701Z,97887.59
2018-09-05T13:11:20.339Z,97893.45
2018-09-05T13:13:48.015Z,97897.34
2018-09-05T13:16:15.688Z,97887.04
2018-09-05T13:18:43.332Z,97888.45
2018-09-05T13:21:11.145Z,97890.07
2018-09-05T13:23:38.877Z,97886.59
2018-09-05T13:26:06.515Z,97888.08
2018-09-05T13:28:34.179Z,97886.36
2018-09-05T13:31:01.786Z,97887.72
2018-09-05T13:33:29.418Z,97884.83
2018-09-05T13:35:57.152Z,97888.62
2018-09-05T13:38:24.834Z,97890.20
2018-09-05T13:40:52.424Z,97879.36
2018-09-05T13:43:20.085Z,97871.19
2018-09-05T13:45:47.682Z,97869.84
2018-09-05T13:48:15.296Z,97875.07
2018-09-05T13:50:43.049Z,97868.41
2018-09-05T13:53:10.655Z,97864.68
2018-09-05T13:55:38.271Z,97869.36
2018-09-05T13:58:06.021Z,97872.00
2018-09-05T14:00:33.629Z,97870.12
2018-09-05T14:03:01.241Z,97868.68
2018-09-05T14:05:29.008Z,97872.52
2018-09-05T14:07:56.627Z,97872.88
2018-09-05T14:10:24.238Z,97868.05
2018-09-05T14:12:51.909Z,97867.88
2018-09-05T14:15:19.532Z,97874.21
2018-09-05T14:17:47.175Z,97863.52
2018-09-05T14:20:14.993Z,97868.33
2018-09-05T14:22:42.641Z,97870.28
2018-09-05T14:25:10.269Z,97869.02
2018-09-05T14:27:38.029Z,97864.50
2018-09-05T14:30:05.661Z,97865.30
2018-09-05T14:32:33.292Z,97871.09
2018-09-05T14:35:00.980Z,97865.66
2018-09-05T14:37:28.608Z,97862.75
2018-09-05T14:39:56.259Z,97863.00
2018-09-05T14:42:23.899Z,97862.72
2018-09-05T14:44:51.519Z,97853.85
2018-09-05T14:47:19.132Z,97861.59
2018-09-05T14:49:46.860Z,97854.34
2018-09-05T14:52:14.478Z,97859.17
2018-09-05T14:54:42.109Z,97857.59
2018-09-05T14:57:09.782Z,97854.36
2018-09-05T14:59:37.432Z,97850.20
2018-09-05T15:02:05.104Z,97854.95
2018-09-05T15:04:32.756Z,97853.65
2018-09-05T15:07:00.480Z,97850.04
2018-09-05T15:09:28.112Z,97834.42
2018-09-05T15:11:55.866Z,97839.02
2018-09-05T15:14:23.476Z,97848.17
2018-09-05T15:16:51.163Z,97847.24
2018-09-05T15:19:18.800Z,97841.84
2018-09-05T15:21:46.496Z,97836.35
2018-09-05T15:24:14.124Z,97839.68
2018-09-05T15:26:41.793Z,97839.88
2018-09-05T15:29:09.412Z,97835.37
2018-09-05T15:31:37.035Z,97836.16
2018-09-05T15:34:04.824Z,97839.48
2018-09-05T15:36:32.446Z,97840.86
2018-09-05T15:39:00.063Z,97836.34
2018-09-05T15:41:27.728Z,97831.03
2018-09-05T15:43:55.346Z,97825.20
2018-09-05T15:46:23.004Z,97826.13
2018-09-05T15:48:50.669Z,97823.11
2018-09-05T15:51:18.343Z,97823.27
2018-09-05T15:53:46.014Z,97820.31
2018-09-05T15:56:13.652Z,97821.46
2018-09-05T15:58:41.288Z,97826.75
2018-09-05T16:01:08.925Z,97822.83
2018-09-05T16:03:36.764Z,97829.80
2018-09-05T16:06:04.532Z,97823.31
2018-09-05T16:08:32.155Z,97826.80
2018-09-05T16:10:59.802Z,97820.61
2018-09-05T16:13:27.470Z,97829.88
2018-09-05T16:15:55.083Z,97828.58
2018-09-05T16:18:22.736Z,97822.21
2018-09-05T16:20:50.367Z,97824.67
2018-09-05T16:23:18.000Z,97827.24
2018-09-05T16:25:45.656Z,97821.37
2018-09-05T16:28:13.276Z,97822.39
2018-09-05T16:30:40.920Z,97826.14
2018-09-05T16:33:08.588Z,97822.05
2018-09-05T16:35:36.253Z,97825.36
2018-09-05T16:38:04.050Z,97820.89
2018-09-05T16:40:31.817Z,97821.65
2018-09-05T16:42:59.467Z,97822.03
2018-09-05T16:45:27.107Z,97826.53
2018-09-05T16:47:54.840Z,97826.23
2018-09-05T16:50:22.896Z,97828.63
2018-09-05T16:52:50.508Z,97823.92
2018-09-05T16:55:18.187Z,97829.11
2018-09-05T16:57:45.815Z,97833.81
2018-09-05T17:00:13.515Z,97833.39
2018-09-05T17:02:41.206Z,97826.45
2018-09-05T17:05:08.886Z,97827.02
2018-09-05T17:07:36.571Z,97824.16
2018-09-05T17:10:04.399Z,97826.16
2018-09-05T17:12:32.037Z,97824.70
2018-09-05T17:14:59.663Z,97823.61
2018-09-05T17:17:27.345Z,97826.41
2018-09-05T17:19:55.071Z,97832.75
2018-09-05T17:22:22.810Z,97833.84
2018-09-05T17:24:50.502Z,97825.47
2018-09-05T17:27:18.180Z,97826.75
2018-09-05T17:29:45.883Z,97828.37
2018-09-05T17:32:13.576Z,97828.81
2018-09-05T17:34:41.266Z,97827.81
2018-09-05T17:37:08.983Z,97832.09
2018-09-05T17:39:36.726Z,97824.59
2018-09-05T17:42:04.428Z,97822.34
2018-09-05T17:44:32.075Z,97825.23
2018-09-05T17:46:59.764Z,97823.64
2018-09-05T17:49:27.423Z,97830.11
2018-09-05T17:51:55.119Z,97829.17
2018-09-05T17:54:22.821Z,97828.05
2018-09-05T17:56:50.520Z,97824.64
2018-09-05T17:59:18.190Z,97832.98
2018-09-05T18:01:45.946Z,97825.25
2018-09-05T18:04:13.589Z,97831.86
2018-09-05T18:06:41.236Z,97828.20
2018-09-05T18:09:09.887Z,97832.83
2018-09-05T18:11:37.547Z,97832.52
2018-09-05T18:14:05.253Z,97830.98
2018-09-05T18:16:32.894Z,97835.87
2018-09-05T18:19:00.789Z,97835.78
2018-09-05T18:21:28.645Z,97837.45
2018-09-05T18:23:56.349Z,97835.91
2018-09-05T18:26:23.988Z,97834.95
2018-09-05T18:28:51.788Z,97835.67
2018-09-05T18:31:19.606Z,97838.54
2018-09-05T18:33:47.264Z,97842.22
2018-09-05T18:36:14.916Z,97846.31
2018-09-05T18:38:42.586Z,97848.34
2018-09-05T18:41:10.327Z,97844.48
2018-09-05T18:43:38.000Z,97850.95
2018-09-05T18:46:05.808Z,97844.91
2018-09-05T18:48:33.491Z,97850.25
2018-09-05T18:51:01.433Z,97844.27
2018-09-05T18:53:29.297Z,97848.29
2018-09-05T18:55:57.009Z,97843.81
2018-09-05T18:58:24.791Z,97846.69
2018-09-05T19:00:52.495Z,97846.05
2018-09-05T19:03:20.209Z,97841.22
2018-09-05T19:05:47.883Z,97844.40
2018-09-05T19:08:15.612Z,97847.48
2018-09-05T19:10:43.292Z,97845.36
2018-09-05T19:13:10.982Z,97853.31
2018-09-05T19:15:38.692Z,97840.00
2018-09-05T19:18:06.346Z,97846.44
2018-09-05T19:20:34.031Z,97844.71
2018-09-05T19:23:01.759Z,97846.48
2018-09-05T19:25:29.404Z,97845.31
2018-09-05T19:27:57.064Z,97846.30
2018-09-05T19:30:24.780Z,97848.25
2018-09-05T19:32:52.527Z,97842.86
2018-09-05T19:35:20.153Z,97841.91
2018-09-05T19:37:47.845Z,97838.98
2018-09-05T19:40:15.509Z,97835.08
2018-09-05T19:42:43.129Z,97847.58
2018-09-05T19:45:10.852Z,97842.16
2018-09-05T19:47:38.514Z,97838.25
2018-09-05T19:50:06.501Z,97845.19
2018-09-05T19:52:34.608Z,97841.72
2018-09-05T19:55:02.305Z,97840.66
2018-09-05T19:57:29.980Z,97842.32
2018-09-05T19:59:57.694Z,97844.16
2018-09-05T20:02:25.424Z,97843.11
2018-09-05T20:04:53.326Z,97843.22
2018-09-05T20:07:21.049Z,97855.58
2018-09-05T20:09:48.854Z,97853.64
2018-09-05T20:12:16.507Z,97856.70
2018-09-05T20:14:44.156Z,97853.14
2018-09-05T20:17:11.925Z,97853.57
2018-09-05T20:19:39.727Z,97853.81
2018-09-05T20:22:10.529Z,97850.13
2018-09-05T20:24:39.946Z,97850.59
2018-09-05T20:27:08.050Z,97844.31
2018-09-05T20:29:35.959Z,97844.66
2018-09-05T20:32:03.675Z,97835.34
2018-09-05T20:34:31.516Z,97836.87
2018-09-05T20:37:00.273Z,97837.72
2018-09-05T20:39:27.931Z,97839.25
2018-09-05T20:41:55.572Z,97837.61
2018-09-05T20:44:23.250Z,97841.30
2018-09-05T20:46:50.936Z,97839.56
2018-09-05T20:49:18.629Z,97837.51
2018-09-05T20:51:46.356Z,97843.91
2018-09-05T20:54:14.032Z,97838.92
2018-09-05T20:56:41.682Z,97836.10
2018-09-05T20:59:09.372Z,97846.41
2018-09-05T21:01:37.058Z,97839.79
2018-09-05T21:04:04.716Z,97840.02
2018-09-05T21:06:32.485Z,97841.53
2018-09-05T21:09:00.150Z,97838.06
2018-09-05T21:11:28.016Z,97837.84
2018-09-05T21:13:55.723Z,97836.77
2018-09-05T21:16:23.446Z,97840.55
2018-09-05T21:18:51.202Z,97836.98
2018-09-05T21:21:18.968Z,97834.16
2018-09-05T21:23:47.623Z,97831.00
2018-09-05T21:26:15.345Z,97825.36
2018-09-05T21:28:43.181Z,97824.60
2018-09-05T21:31:11.000Z,97819.08
2018-09-05T21:33:38.756Z,97823.81
2018-09-05T21:36:06.469Z,97824.99
2018-09-05T21:38:34.179Z,97818.28
2018-09-05T21:41:01.823Z,97817.94
2018-09-05T21:43:29.615Z,97819.34
2018-09-05T21:45:57.332Z,97812.76
2018-09-05T21:48:24.982Z,97820.32
2018-09-05T21:50:52.628Z,97815.67
2018-09-05T21:53:20.294Z,97816.96
2018-09-05T21:55:47.908Z,97820.95
2018-09-05T21:58:15.561Z,97812.61
2018-09-05T22:00:43.978Z,97815.51
2018-09-05T22:03:11.604Z,97809.98
2018-09-05T22:05:40.375Z,97812.65
2018-09-05T22:08:08.135Z,97818.95
2018-09-05T22:10:36.768Z,97817.31
2018-09-05T22:13:04.455Z,97810.16
2018-09-05T22:15:37.518Z,97816.95
2018-09-05T22:18:05.269Z,97812.21
2018-09-05T22:20:32.899Z,97807.97
2018-09-05T22:23:00.583Z,97810.02
2018-09-05T22:25:28.318Z,97810.66
2018-09-05T22:27:56.063Z,97807.15
2018-09-05T22:30:23.749Z,97806.67
2018-09-05T22:32:51.515Z,97812.85
2018-09-05T22:35:19.154Z,97805.88
2018-09-05T22:37:46.840Z,97802.98
2018-09-05T22:40:14.540Z,97806.77
2018-09-05T22:42:53.283Z,97802.66
2018-09-05T22:45:31.912Z,97805.47
2018-09-05T22:50:20.275Z,97798.45
2018-09-05T22:53:01.580Z,97795.73
2018-09-05T22:57:47.029Z,97797.89
2018-09-05T23:00:25.929Z,97796.86
2018-09-05T23:07:09.613Z,97802.27
2018-09-05T23:09:48.307Z,97799.73
2018-09-05T23:12:27.117Z,97796.98
2018-09-05T23:15:06.387Z,97790.51
2018-09-05T23:18:46.949Z,97788.87
2018-09-05T23:21:16.421Z,97790.68
2018-09-05T23:23:54.842Z,97785.83
2018-09-05T23:26:22.655Z,97780.64
2018-09-05T23:28:50.407Z,97786.26
2018-09-05T23:31:18.354Z,97778.92
2018-09-05T23:33:45.979Z,97772.98
2018-09-05T23:36:14.075Z,97777.39
2018-09-05T23:38:41.737Z,97782.53
2018-09-05T23:41:09.504Z,97776.47
2018-09-05T23:43:37.127Z,97774.86
2018-09-05T23:46:04.901Z,97776.91
2018-09-05T23:48:32.505Z,97776.27
2018-09-05T23:51:00.101Z,97780.20
2018-09-05T23:53:27.780Z,97775.02
2018-09-05T23:55:55.383Z,97774.95
2018-09-05T23:58:23.501Z,97778.73
